Time;durP1;ratioP1;P1;durP2;ratioP2;P2;SDS_P1;SDS_P2;PMS_P1;PMS_P2;Temp;Humidity;BMP_temperature;BMP_pressure;BME280_temperature;BME280_humidity;BME280_pressure;Samples;Min_cycle;Max_cycle;Signal;HPM_P1;HPM_P2
2024/04/20 00:02:27;;;;;;;2.43;1.70;;;4.80;98.80;;;;;;6373649;22;20240;-86
2024/04/20 00:04:59;;;;;;;3.93;1.80;;;4.90;98.30;;;;;;6372611;22;20277;-87
2024/04/20 00:07:27;;;;;;;2.33;2.00;;;4.90;98.60;;;;;;6369501;22;20272;-87
2024/04/20 00:09:58;;;;;;;2.67;1.73;;;4.90;97.70;;;;;;6373232;22;20301;-87
2024/04/20 00:12:27;;;;;;;4.13;1.60;;;4.90;98.10;;;;;;6372289;22;20234;-87
2024/04/20 00:14:55;;;;;;;3.70;1.80;;;4.90;98.20;;;;;;6372769;22;21054;-87
2024/04/20 00:17:24;;;;;;;3.43;1.70;;;4.80;98.70;;;;;;6373591;22;20269;-87
2024/04/20 00:19:55;;;;;;;2.30;1.67;;;4.80;98.50;;;;;;6372945;22;20230;-87
2024/04/20 00:22:26;;;;;;;2.40;1.60;;;4.80;98.80;;;;;;6330678;22;20229;-87
2024/04/20 00:24:55;;;;;;;3.33;1.63;;;4.80;98.80;;;;;;6372421;22;20323;-87
2024/04/20 00:27:23;;;;;;;2.17;1.80;;;4.80;97.90;;;;;;6373179;22;20277;-86
2024/04/20 00:29:52;;;;;;;3.33;1.30;;;4.70;98.30;;;;;;6373363;22;20225;-87
2024/04/20 00:32:20;;;;;;;2.27;1.60;;;4.70;98.20;;;;;;6372994;22;20336;-86
2024/04/20 00:34:49;;;;;;;1.50;1.40;;;4.60;98.30;;;;;;6371972;22;20237;-86
2024/04/20 00:37:18;;;;;;;2.33;1.50;;;4.50;98.40;;;;;;6373272;22;20221;-86
2024/04/20 00:39:46;;;;;;;1.50;1.40;;;4.50;98.90;;;;;;6373695;22;20226;-86
2024/04/20 00:42:15;;;;;;;1.20;1.10;;;4.40;99.00;;;;;;6373100;22;20260;-86
2024/04/20 00:44:43;;;;;;;1.37;1.23;;;4.40;98.90;;;;;;6331535;22;20285;-87
2024/04/20 00:47:12;;;;;;;1.83;1.00;;;4.20;98.70;;;;;;6373986;22;20352;-85
2024/04/20 00:49:41;;;;;;;1.30;1.20;;;4.20;99.10;;;;;;6371256;22;20344;-87
2024/04/20 00:52:10;;;;;;;1.10;1.00;;;4.20;99.30;;;;;;6330229;22;20234;-86
2024/04/20 00:54:39;;;;;;;2.30;0.90;;;4.20;99.00;;;;;;6372886;22;20233;-87
2024/04/20 00:57:12;;;;;;;1.20;0.80;;;4.20;99.10;;;;;;6374380;22;20234;-87
2024/04/20 00:59:40;;;;;;;0.90;0.90;;;4.20;99.00;;;;;;6372751;22;20229;-87
2024/04/20 01:02:09;;;;;;;0.90;0.90;;;4.10;98.90;;;;;;6330986;22;20289;-87
2024/04/20 01:04:37;;;;;;;0.77;0.77;;;4.20;98.90;;;;;;6373973;22;20401;-86
2024/04/20 01:07:06;;;;;;;0.77;0.77;;;4.10;99.20;;;;;;6373628;22;20346;-87
2024/04/20 01:09:32;;;;;;;1.23;0.77;;;4.10;99.50;;;;;;6375808;22;20222;-87
2024/04/20 01:12:01;;;;;;;0.80;0.80;;;4.10;99.30;;;;;;6331251;22;20301;-87
2024/04/20 01:14:32;;;;;;;2.00;1.03;;;4.10;99.20;;;;;;6375921;22;20350;-87
2024/04/20 01:17:02;;;;;;;1.60;1.00;;;4.20;99.00;;;;;;6374771;22;20233;-86
2024/04/20 01:19:33;;;;;;;2.03;1.20;;;4.10;98.90;;;;;;6374498;22;20268;-87
2024/04/20 01:22:01;;;;;;;1.20;1.10;;;4.10;99.10;;;;;;6374980;22;20257;-87
2024/04/20 01:24:31;;;;;;;1.63;1.37;;;4.10;99.40;;;;;;6374304;22;20269;-87
2024/04/20 01:27:02;;;;;;;1.23;1.13;;;4.10;99.50;;;;;;6372412;22;20229;-87
2024/04/20 01:29:31;;;;;;;1.00;1.00;;;4.10;99.60;;;;;;6375110;22;20760;-86
2024/04/20 01:31:59;;;;;;;1.13;1.03;;;4.10;99.40;;;;;;6374030;22;20277;-87
2024/04/20 01:34:26;;;;;;;1.77;1.33;;;4.00;99.20;;;;;;6331691;22;20229;-86
2024/04/20 01:36:55;;;;;;;1.77;1.33;;;4.00;99.30;;;;;;6374405;22;20275;-86
2024/04/20 01:39:23;;;;;;;1.30;1.20;;;3.90;99.50;;;;;;6374905;22;20659;-87
2024/04/20 01:41:52;;;;;;;1.20;1.10;;;4.00;99.40;;;;;;6374897;22;20878;-86
2024/04/20 01:44:23;;;;;;;3.00;1.40;;;4.00;99.50;;;;;;6333325;22;20218;-87
2024/04/20 01:46:52;;;;;;;1.43;1.20;;;4.20;98.90;;;;;;6375309;22;20301;-87
2024/04/20 01:49:21;;;;;;;2.27;1.50;;;4.10;98.80;;;;;;6374076;22;20305;-86
2024/04/20 01:51:49;;;;;;;1.60;1.50;;;4.00;98.90;;;;;;6373654;22;20639;-87
2024/04/20 01:54:18;;;;;;;1.60;1.27;;;4.00;99.20;;;;;;6375024;22;20274;-86
2024/04/20 01:56:46;;;;;;;2.73;1.60;;;3.90;99.20;;;;;;6373390;22;20358;-87
2024/04/20 01:59:15;;;;;;;3.60;1.20;;;3.90;99.10;;;;;;6374411;22;21103;-86
2024/04/20 02:01:48;;;;;;;1.73;1.10;;;3.80;99.10;;;;;;6331028;22;20222;-87
2024/04/20 02:04:17;;;;;;;1.93;1.27;;;3.80;99.40;;;;;;6375244;22;20230;-86
2024/04/20 02:06:46;;;;;;;2.87;1.40;;;3.80;99.40;;;;;;6374211;22;20328;-86
2024/04/20 02:09:14;;;;;;;2.07;1.33;;;3.80;99.50;;;;;;6374223;22;20272;-86
2024/04/20 02:11:43;;;;;;;2.37;1.20;;;3.90;99.10;;;;;;6374454;22;20233;-86
2024/04/20 02:14:12;;;;;;;2.03;1.67;;;3.90;99.30;;;;;;6373857;22;20536;-87
2024/04/20 02:16:40;;;;;;;2.63;1.37;;;3.90;99.60;;;;;;6375462;22;20797;-86
2024/04/20 02:19:12;;;;;;;2.23;1.50;;;4.00;98.70;;;;;;6373870;22;20293;-86
2024/04/20 02:21:40;;;;;;;3.03;1.50;;;4.00;99.00;;;;;;6375005;22;20229;-86
2024/04/20 02:24:09;;;;;;;4.40;1.67;;;4.00;98.60;;;;;;6372598;22;21031;-87
2024/04/20 02:26:38;;;;;;;1.53;1.20;;;4.00;98.80;;;;;;6375466;22;20218;-86
2024/04/20 02:29:06;;;;;;;3.47;1.67;;;3.90;98.90;;;;;;6373570;22;20275;-87
2024/04/20 02:31:35;;;;;;;3.83;1.60;;;3.90;99.10;;;;;;6374247;22;20336;-87
2024/04/20 02:34:03;;;;;;;2.00;1.57;;;3.90;99.30;;;;;;6374631;22;20318;-86
2024/04/20 02:36:35;;;;;;;5.00;1.70;;;4.00;98.90;;;;;;6374023;22;20269;-87
2024/04/20 02:39:03;;;;;;;2.83;1.67;;;4.10;98.70;;;;;;6373459;22;20233;-86
2024/04/20 02:41:32;;;;;;;3.77;1.33;;;4.10;98.20;;;;;;6374561;22;20233;-86
2024/04/20 02:44:01;;;;;;;4.20;1.90;;;4.10;98.30;;;;;;6331941;22;20276;-86
2024/04/20 02:46:29;;;;;;;3.10;1.50;;;4.10;98.40;;;;;;6375355;22;20285;-86
2024/04/20 02:48:58;;;;;;;5.93;1.70;;;4.10;98.20;;;;;;6374116;22;20249;-86
2024/04/20 02:51:27;;;;;;;2.07;1.47;;;4.30;98.20;;;;;;6374252;22;20229;-86
2024/04/20 02:54:05;;;;;;;2.97;1.47;;;4.20;97.80;;;;;;6373968;22;20671;-87
2024/04/20 02:56:34;;;;;;;2.37;1.60;;;4.10;98.00;;;;;;6373976;22;20272;-87
2024/04/20 02:59:03;;;;;;;2.83;1.60;;;4.10;97.80;;;;;;6373433;22;20622;-85
2024/04/20 03:01:31;;;;;;;3.13;1.67;;;4.10;97.90;;;;;;6373826;22;20328;-87
2024/04/20 03:04:00;;;;;;;3.13;1.70;;;4.20;97.70;;;;;;6374589;22;20838;-86
2024/04/20 03:06:28;;;;;;;3.70;1.60;;;4.20;98.10;;;;;;6375787;22;20237;-86
2024/04/20 03:09:00;;;;;;;4.67;1.53;;;4.20;97.80;;;;;;6340363;22;20230;-87
2024/04/20 03:11:29;;;;;;;2.87;1.50;;;4.20;97.50;;;;;;6374078;22;20692;-86
2024/04/20 03:13:57;;;;;;;1.73;1.37;;;4.30;97.50;;;;;;6374142;22;20293;-86
2024/04/20 03:16:26;;;;;;;3.53;1.50;;;4.20;97.70;;;;;;6374641;22;20361;-86
2024/04/20 03:18:54;;;;;;;2.63;1.43;;;4.20;97.90;;;;;;6374053;22;20357;-86
2024/04/20 03:21:23;;;;;;;4.40;2.30;;;4.20;97.80;;;;;;6374478;22;20357;-87
2024/04/20 03:23:52;;;;;;;2.50;1.80;;;4.20;98.10;;;;;;6374254;22;20280;-87
2024/04/20 03:26:23;;;;;;;3.30;1.50;;;4.30;98.50;;;;;;6373408;22;20233;-87
2024/04/20 03:28:52;;;;;;;2.77;1.60;;;4.30;98.30;;;;;;6331603;22;20272;-86
2024/04/20 03:31:20;;;;;;;3.57;1.80;;;4.30;98.00;;;;;;6373343;22;20225;-87
2024/04/20 03:33:49;;;;;;;4.80;1.70;;;4.30;98.00;;;;;;6374643;22;20324;-86
2024/04/20 03:36:19;;;;;;;4.23;1.80;;;4.30;98.00;;;;;;6372468;22;20249;-87
2024/04/20 03:38:49;;;;;;;4.10;1.77;;;4.30;97.50;;;;;;6373497;22;20298;-86
2024/04/20 03:41:17;;;;;;;4.90;2.10;;;4.30;97.90;;;;;;6373024;22;20259;-87
2024/04/20 03:43:48;;;;;;;4.53;1.67;;;4.30;98.10;;;;;;6374865;22;20233;-86
2024/04/20 03:46:17;;;;;;;3.23;1.77;;;4.30;97.70;;;;;;6331084;22;20684;-86
2024/04/20 03:48:48;;;;;;;4.73;1.57;;;4.40;97.60;;;;;;6331816;22;20272;-87
2024/04/20 03:51:16;;;;;;;5.03;1.80;;;4.30;97.90;;;;;;6373880;22;20350;-86
2024/04/20 03:53:45;;;;;;;3.40;1.70;;;4.30;98.20;;;;;;6374621;22;20324;-87
2024/04/20 03:56:13;;;;;;;4.07;1.70;;;4.40;97.80;;;;;;6374231;22;20310;-86
2024/04/20 03:58:42;;;;;;;3.97;1.63;;;4.40;97.70;;;;;;6374095;22;20267;-87
2024/04/20 04:01:13;;;;;;;2.10;1.87;;;4.40;97.60;;;;;;6329518;22;20820;-87
2024/04/20 04:03:42;;;;;;;2.00;1.60;;;4.40;97.60;;;;;;6331578;22;20229;-86
2024/04/20 04:06:11;;;;;;;2.20;1.40;;;4.40;98.00;;;;;;6374151;22;20338;-87
2024/04/20 04:08:40;;;;;;;3.10;1.60;;;4.30;98.10;;;;;;6331356;22;20813;-86
2024/04/20 04:11:08;;;;;;;3.10;1.67;;;4.30;98.20;;;;;;6330816;22;20260;-87
2024/04/20 04:13:37;;;;;;;3.23;1.93;;;4.30;98.10;;;;;;6372651;22;20353;-86
2024/04/20 04:16:06;;;;;;;3.90;1.50;;;4.30;98.40;;;;;;6374225;22;20673;-86
2024/04/20 04:18:37;;;;;;;2.37;1.53;;;4.40;98.60;;;;;;6330051;22;20237;-86
2024/04/20 04:21:10;;;;;;;4.60;1.80;;;4.40;98.30;;;;;;6374054;22;20773;-87
2024/04/20 04:23:38;;;;;;;4.33;1.70;;;4.40;98.20;;;;;;6373095;22;20260;-86
2024/04/20 04:26:07;;;;;;;4.70;1.60;;;4.40;98.20;;;;;;6373487;22;20268;-87
2024/04/20 04:28:36;;;;;;;5.30;2.00;;;4.40;98.40;;;;;;6373442;22;20340;-87
2024/04/20 04:31:05;;;;;;;5.87;2.00;;;4.40;98.20;;;;;;6373858;22;20277;-87
2024/04/20 04:33:33;;;;;;;2.07;1.67;;;4.40;98.30;;;;;;6374043;22;20285;-86
2024/04/20 04:36:05;;;;;;;4.53;2.10;;;4.40;98.20;;;;;;6372834;22;20301;-85
2024/04/20 04:38:33;;;;;;;3.57;1.80;;;4.30;98.00;;;;;;6373882;22;20719;-86
2024/04/20 04:41:02;;;;;;;4.50;1.80;;;4.30;98.30;;;;;;6330433;22;20226;-86
2024/04/20 04:43:32;;;;;;;3.47;2.00;;;4.30;98.50;;;;;;6374843;22;20328;-86
2024/04/20 04:46:00;;;;;;;2.73;1.80;;;4.40;98.40;;;;;;6375739;22;20341;-86
2024/04/20 04:48:29;;;;;;;2.07;1.83;;;4.30;98.50;;;;;;6333411;22;20264;-86
2024/04/20 04:50:57;;;;;;;2.10;1.90;;;4.30;98.50;;;;;;6376125;22;20225;-86
2024/04/20 04:53:29;;;;;;;3.87;1.90;;;4.30;98.70;;;;;;6375404;22;20233;-86
2024/04/20 04:55:57;;;;;;;3.17;2.00;;;4.30;98.70;;;;;;6375836;22;20297;-86
2024/04/20 04:58:26;;;;;;;3.33;2.07;;;4.30;98.50;;;;;;6376357;22;20334;-86
2024/04/20 05:00:54;;;;;;;2.17;1.80;;;4.30;98.80;;;;;;6333049;22;20218;-86
2024/04/20 05:03:21;;;;;;;2.70;1.93;;;4.30;98.70;;;;;;6375268;22;20225;-86
2024/04/20 05:05:50;;;;;;;4.63;2.30;;;4.30;98.80;;;;;;6375692;22;20301;-86
2024/04/20 05:08:19;;;;;;;2.60;1.80;;;4.30;98.80;;;;;;6376597;22;20257;-86
2024/04/20 05:10:50;;;;;;;3.00;2.10;;;4.30;98.70;;;;;;6376328;22;20238;-86
2024/04/20 05:13:19;;;;;;;4.07;2.03;;;4.30;99.20;;;;;;6376519;22;20655;-86
2024/04/20 05:15:48;;;;;;;4.80;2.00;;;4.20;99.90;;;;;;6332066;22;20230;-86
2024/04/20 05:18:23;;;;;;;3.90;2.17;;;4.20;99.90;;;;;;6375178;22;20277;-86
2024/04/20 05:20:52;;;;;;;2.87;2.13;;;4.00;99.90;;;;;;6373945;22;20233;-86
2024/04/20 05:23:21;;;;;;;4.43;2.50;;;4.10;99.90;;;;;;6374535;22;20240;-86
2024/04/20 05:25:52;;;;;;;3.63;2.20;;;4.10;99.90;;;;;;6376488;22;20961;-85
2024/04/20 05:28:22;;;;;;;4.43;2.27;;;4.00;99.90;;;;;;6375906;22;20233;-86
2024/04/20 05:30:51;;;;;;;3.33;2.17;;;4.00;99.90;;;;;;6376165;22;20225;-85
2024/04/20 05:33:19;;;;;;;3.90;2.23;;;4.00;99.90;;;;;;6375558;22;20293;-85
2024/04/20 05:35:48;;;;;;;6.20;2.47;;;4.00;99.90;;;;;;6374831;22;20552;-86
2024/04/20 05:38:17;;;;;;;4.13;2.40;;;4.00;99.90;;;;;;6375158;22;20664;-86
2024/04/20 05:40:46;;;;;;;4.13;2.40;;;4.00;99.90;;;;;;6336397;22;20230;-86
2024/04/20 05:43:17;;;;;;;4.70;2.70;;;4.00;99.90;;;;;;6377765;22;20644;-86
2024/04/20 05:45:46;;;;;;;5.43;2.90;;;4.00;99.90;;;;;;6334130;22;20334;-85
2024/04/20 05:48:15;;;;;;;3.53;2.57;;;4.00;99.90;;;;;;6333555;22;20277;-86
2024/04/20 05:50:45;;;;;;;3.57;2.20;;;4.10;99.90;;;;;;6375645;22;20327;-86
2024/04/20 05:53:17;;;;;;;6.67;2.63;;;4.20;99.90;;;;;;6375851;22;20568;-85
2024/04/20 05:55:46;;;;;;;4.63;2.80;;;4.30;99.90;;;;;;6375056;22;20268;-86
2024/04/20 05:58:17;;;;;;;5.33;2.77;;;4.30;99.90;;;;;;6375944;22;20354;-85
2024/04/20 06:00:47;;;;;;;3.53;2.37;;;4.30;99.90;;;;;;6375431;22;20233;-86
2024/04/20 06:03:15;;;;;;;4.07;2.67;;;4.30;99.90;;;;;;6374899;22;20233;-86
2024/04/20 06:05:47;;;;;;;4.63;2.73;;;4.20;99.90;;;;;;6376249;22;20366;-86
2024/04/20 06:08:16;;;;;;;4.10;2.60;;;4.20;99.90;;;;;;6332689;22;20910;-86
2024/04/20 06:10:55;;;;;;;5.53;3.03;;;4.30;99.90;;;;;;6375437;22;20233;-86
2024/04/20 06:13:28;;;;;;;5.17;2.90;;;4.30;99.90;;;;;;6374871;22;20264;-86
2024/04/20 06:15:57;;;;;;;5.07;2.53;;;4.30;99.90;;;;;;6376242;22;20221;-86
2024/04/20 06:18:25;;;;;;;4.77;2.80;;;4.40;99.90;;;;;;6374641;22;20229;-86
2024/04/20 06:20:54;;;;;;;5.57;2.50;;;4.40;99.90;;;;;;6375298;22;20696;-87
2024/04/20 06:23:22;;;;;;;2.73;2.53;;;4.30;99.90;;;;;;6375306;22;20225;-86
2024/04/20 06:25:51;;;;;;;2.97;2.30;;;4.40;99.90;;;;;;6375914;22;20230;-86
2024/04/20 06:28:20;;;;;;;3.93;2.50;;;4.30;99.90;;;;;;6375162;22;20290;-86
2024/04/20 06:30:52;;;;;;;4.93;2.70;;;4.30;99.90;;;;;;6375523;22;20343;-87
2024/04/20 06:33:20;;;;;;;5.10;2.40;;;4.40;99.90;;;;;;6374723;22;20225;-87
2024/04/20 06:35:49;;;;;;;6.97;2.60;;;4.40;99.90;;;;;;6374074;22;20256;-86
2024/04/20 06:38:17;;;;;;;2.50;2.10;;;4.50;99.90;;;;;;6373025;22;20349;-87
2024/04/20 06:40:47;;;;;;;2.57;2.37;;;4.60;99.90;;;;;;6374932;22;20281;-86
2024/04/20 06:43:15;;;;;;;3.97;2.17;;;4.50;99.90;;;;;;6373938;22;20225;-87
2024/04/20 06:45:44;;;;;;;3.27;2.37;;;4.60;99.90;;;;;;6373403;22;20281;-87
2024/04/20 06:48:15;;;;;;;2.97;2.20;;;4.60;99.90;;;;;;6373302;22;20352;-87
2024/04/20 06:50:44;;;;;;;3.63;2.27;;;4.70;99.90;;;;;;6373246;22;20222;-87
2024/04/20 06:53:13;;;;;;;143.90;84.60;;;4.70;99.90;;;;;;6374053;22;20321;-87
2024/04/20 06:55:41;;;;;;;3.60;2.53;;;5.10;99.90;;;;;;6375092;22;20269;-84
2024/04/20 06:58:10;;;;;;;61.93;38.87;;;5.40;98.30;;;;;;6330945;22;20233;-88
2024/04/20 07:00:39;;;;;;;7.43;4.37;;;5.30;98.30;;;;;;6379685;22;20245;-86
2024/04/20 07:03:08;;;;;;;3.70;2.40;;;5.50;98.10;;;;;;6370063;22;20217;-84
2024/04/20 07:05:39;;;;;;;9.00;5.60;;;5.90;96.30;;;;;;6374307;22;20276;-86
2024/04/20 07:08:08;;;;;;;4.17;2.27;;;5.80;96.60;;;;;;6378129;22;20285;-90
2024/04/20 07:10:37;;;;;;;2.80;2.07;;;5.90;95.30;;;;;;6380330;22;20687;-86
2024/04/20 07:13:05;;;;;;;74.03;49.33;;;6.10;95.30;;;;;;6374375;22;20249;-89
2024/04/20 07:15:34;;;;;;;3.23;2.20;;;6.10;95.30;;;;;;6374605;22;20377;-90
2024/04/20 07:18:03;;;;;;;2.70;1.97;;;6.20;95.00;;;;;;6370465;22;20217;-83
2024/04/20 07:20:33;;;;;;;2.93;2.03;;;6.00;95.30;;;;;;6371442;22;20217;-83
2024/04/20 07:23:05;;;;;;;5.23;2.40;;;6.20;95.30;;;;;;6371881;22;20260;-83
2024/04/20 07:25:33;;;;;;;2.77;2.00;;;6.30;95.30;;;;;;6369100;22;20805;-86
2024/04/20 07:28:02;;;;;;;3.10;2.37;;;6.30;94.10;;;;;;6372195;22;20333;-85
2024/04/20 07:30:30;;;;;;;3.23;2.30;;;6.10;94.40;;;;;;6328374;22;20225;-85
2024/04/20 07:32:59;;;;;;;4.03;2.28;;;6.60;93.30;;;;;;6370015;22;20226;-87
2024/04/20 07:35:30;;;;;;;4.50;2.00;;;6.70;93.20;;;;;;6370990;22;20254;-84
2024/04/20 07:37:59;;;;;;;4.88;2.42;;;6.70;92.70;;;;;;6365510;22;20234;-91
2024/04/20 07:40:30;;;;;;;2.70;1.77;;;6.50;93.10;;;;;;6370532;22;20226;-86
2024/04/20 07:42:58;;;;;;;4.03;2.28;;;6.60;93.40;;;;;;6370287;22;20361;-85
2024/04/20 07:45:27;;;;;;;4.60;2.20;;;6.60;93.10;;;;;;6372829;22;20226;-88
2024/04/20 07:47:56;;;;;;;2.67;1.63;;;6.70;92.00;;;;;;6372491;22;20302;-84
2024/04/20 07:50:25;;;;;;;3.67;2.17;;;6.40;92.00;;;;;;6378523;22;20300;-90
2024/04/20 07:52:53;;;;;;;1.92;1.70;;;6.60;93.00;;;;;;6377090;22;20264;-86
2024/04/20 07:55:22;;;;;;;15.52;10.52;;;6.70;92.40;;;;;;6374130;22;20782;-89
2024/04/20 07:57:53;;;;;;;29.50;21.58;;;6.90;90.80;;;;;;6373706;22;20226;-91
2024/04/20 08:00:22;;;;;;;6.25;3.72;;;7.20;91.30;;;;;;6375374;22;20296;-90
2024/04/20 08:02:51;;;;;;;10.23;7.00;;;7.20;91.00;;;;;;6373999;22;20281;-91
2024/04/20 08:05:19;;;;;;;5.63;3.25;;;7.50;89.30;;;;;;6335264;22;20261;-93
2024/04/20 08:07:48;;;;;;;5.07;3.00;;;7.40;86.10;;;;;;6378062;22;20332;-91
2024/04/20 08:10:17;;;;;;;5.80;3.75;;;7.20;87.90;;;;;;6333536;22;20665;-91
2024/04/20 08:12:45;;;;;;;4.40;2.65;;;7.30;90.10;;;;;;6376052;22;20402;-91
2024/04/20 08:15:17;;;;;;;2.85;2.05;;;7.20;86.70;;;;;;6373985;22;20277;-88
2024/04/20 08:17:46;;;;;;;3.88;2.90;;;7.20;85.80;;;;;;6337499;22;20364;-94
2024/04/20 08:20:16;;;;;;;3.03;1.90;;;7.40;85.40;;;;;;6373687;22;20288;-90
2024/04/20 08:22:45;;;;;;;2.67;1.70;;;7.40;85.90;;;;;;6327365;22;21142;-88
2024/04/20 08:25:14;;;;;;;3.20;2.00;;;7.20;82.70;;;;;;6374850;22;20213;-86
2024/04/20 08:27:43;;;;;;;3.42;2.00;;;7.10;83.10;;;;;;6373034;22;20712;-90
2024/04/20 08:30:13;;;;;;;1.92;1.80;;;7.50;82.70;;;;;;6378184;22;20312;-88
2024/04/20 08:32:44;;;;;;;3.55;1.70;;;7.70;76.80;;;;;;6373542;22;20268;-87
2024/04/20 08:35:14;;;;;;;2.05;1.42;;;7.70;78.30;;;;;;6374355;22;20238;-87
2024/04/20 08:37:44;;;;;;;2.10;1.50;;;7.90;75.70;;;;;;6373627;22;20241;-86
2024/04/20 08:40:14;;;;;;;4.88;2.20;;;7.90;77.40;;;;;;6373875;22;20256;-87
2024/04/20 08:42:43;;;;;;;8.05;4.10;;;8.20;64.40;;;;;;6330988;22;20265;-87
2024/04/20 08:45:15;;;;;;;3.63;2.13;;;8.50;59.60;;;;;;6372784;22;21048;-87
2024/04/20 08:47:46;;;;;;;14.13;3.65;;;8.60;55.90;;;;;;6373722;22;20324;-87
2024/04/20 08:50:18;;;;;;;2.85;1.65;;;9.00;52.90;;;;;;6373262;22;20283;-88
2024/04/20 08:52:48;;;;;;;6.47;2.50;;;9.20;49.90;;;;;;6374083;22;20276;-93
2024/04/20 08:55:18;;;;;;;4.05;2.03;;;9.20;47.60;;;;;;6374602;22;20281;-88
2024/04/20 08:57:47;;;;;;;4.35;2.05;;;9.50;47.90;;;;;;6374665;22;20652;-89
2024/04/20 09:00:15;;;;;;;3.72;1.90;;;9.90;44.60;;;;;;6374338;22;20289;-89
2024/04/20 09:02:47;;;;;;;1.80;1.40;;;9.60;42.30;;;;;;6373799;22;20340;-88
2024/04/20 09:05:18;;;;;;;2.70;1.30;;;9.50;46.90;;;;;;6375546;22;20245;-88
2024/04/20 09:07:48;;;;;;;3.78;1.98;;;9.50;41.70;;;;;;6374775;22;20264;-89
2024/04/20 09:10:17;;;;;;;3.60;1.77;;;9.50;45.20;;;;;;6375255;22;20221;-89
2024/04/20 09:12:45;;;;;;;2.35;1.20;;;9.60;45.20;;;;;;6374474;22;20221;-89
2024/04/20 09:15:17;;;;;;;2.50;1.60;;;9.70;45.80;;;;;;6375425;22;20795;-89
2024/04/20 09:17:50;;;;;;;2.33;1.52;;;9.40;43.50;;;;;;6374636;22;20293;-87
2024/04/20 09:20:19;;;;;;;3.25;1.60;;;8.60;42.60;;;;;;6374500;22;20225;-87
2024/04/20 09:22:49;;;;;;;2.95;1.80;;;8.10;49.20;;;;;;6374145;22;20345;-87
2024/04/20 09:25:21;;;;;;;1.50;1.38;;;7.70;58.80;;;;;;6375394;22;20218;-88
2024/04/20 09:27:52;;;;;;;1.60;1.50;;;7.40;63.90;;;;;;6375156;22;20230;-88
2024/04/20 09:30:20;;;;;;;1.73;1.40;;;7.60;72.40;;;;;;6375626;22;20273;-89
2024/04/20 09:32:52;;;;;;;3.35;1.70;;;8.80;66.30;;;;;;6374758;22;20269;-89
2024/04/20 09:35:21;;;;;;;2.75;1.70;;;9.30;47.70;;;;;;6373986;22;20284;-87
2024/04/20 09:37:49;;;;;;;1.40;1.30;;;9.10;49.20;;;;;;6374238;22;20221;-85
2024/04/20 09:40:18;;;;;;;1.48;1.38;;;8.90;47.40;;;;;;6374290;22;20316;-86
2024/04/20 09:42:49;;;;;;;1.85;1.40;;;9.00;40.70;;;;;;6374867;22;20281;-84
2024/04/20 09:45:18;;;;;;;4.65;1.38;;;9.60;44.20;;;;;;6374953;22;20222;-84
2024/04/20 09:47:48;;;;;;;2.08;1.40;;;10.30;37.00;;;;;;6373664;22;20281;-84
2024/04/20 09:50:21;;;;;;;2.00;1.35;;;10.60;36.10;;;;;;6374255;22;20241;-86
2024/04/20 09:52:52;;;;;;;1.92;1.48;;;11.10;32.80;;;;;;6373617;22;20229;-87
2024/04/20 09:55:30;;;;;;;2.83;1.63;;;11.10;29.20;;;;;;6375788;22;20222;-87
2024/04/20 09:58:01;;;;;;;2.67;1.60;;;10.90;27.70;;;;;;6378476;22;20280;-90
2024/04/20 10:00:32;;;;;;;2.40;1.50;;;10.70;28.90;;;;;;6375850;22;20226;-84
2024/04/20 10:03:02;;;;;;;2.53;1.40;;;9.90;30.00;;;;;;6374821;22;20358;-84
2024/04/20 10:05:34;;;;;;;2.65;1.63;;;9.60;33.10;;;;;;6374388;22;20233;-84
2024/04/20 10:08:04;;;;;;;2.70;1.50;;;9.80;34.30;;;;;;6374100;22;20234;-84
2024/04/20 10:10:34;;;;;;;2.53;1.55;;;10.30;30.20;;;;;;6376673;22;20260;-87
2024/04/20 10:13:04;;;;;;;1.73;1.58;;;10.00;32.50;;;;;;6374995;22;20353;-86
2024/04/20 10:15:34;;;;;;;2.50;1.60;;;10.00;34.00;;;;;;6374610;22;20742;-86
2024/04/20 10:18:04;;;;;;;2.88;1.52;;;9.40;36.50;;;;;;6376150;22;20293;-90
2024/04/20 10:20:36;;;;;;;4.63;1.52;;;8.90;39.60;;;;;;6369548;22;20253;-87
2024/04/20 10:23:14;;;;;;;2.15;1.45;;;8.40;57.20;;;;;;6373896;22;20278;-83
2024/04/20 10:25:43;;;;;;;2.67;1.80;;;7.80;62.30;;;;;;6374925;22;20284;-86
2024/04/20 10:28:12;;;;;;;1.60;1.42;;;7.90;77.50;;;;;;6333450;22;20229;-88
2024/04/20 10:30:42;;;;;;;1.80;1.60;;;8.20;76.90;;;;;;6375245;22;20269;-90
2024/04/20 10:33:11;;;;;;;1.70;1.55;;;8.60;69.00;;;;;;6333562;22;20534;-90
2024/04/20 10:35:43;;;;;;;2.88;1.73;;;8.80;66.30;;;;;;6375682;22;20267;-88
2024/04/20 10:38:11;;;;;;;2.17;1.50;;;8.60;64.30;;;;;;6373924;22;20226;-85
2024/04/20 10:40:40;;;;;;;1.65;1.38;;;8.60;67.50;;;;;;6373856;22;20665;-89
2024/04/20 10:43:14;;;;;;;1.38;1.27;;;8.90;65.00;;;;;;6330473;22;20230;-84
2024/04/20 10:45:43;;;;;;;2.65;1.50;;;8.90;58.90;;;;;;6375114;22;20872;-89
2024/04/20 10:48:14;;;;;;;1.90;1.70;;;9.10;51.00;;;;;;6375763;22;20271;-90
2024/04/20 10:50:46;;;;;;;1.55;1.40;;;9.20;52.00;;;;;;6376501;22;20233;-88
2024/04/20 10:53:18;;;;;;;1.75;1.65;;;9.90;48.20;;;;;;6373067;22;20274;-87
2024/04/20 10:55:47;;;;;;;1.75;1.30;;;10.20;33.60;;;;;;6374415;22;20268;-88
2024/04/20 10:58:15;;;;;;;2.72;1.20;;;10.10;32.50;;;;;;6374992;22;20293;-88
2024/04/20 11:00:44;;;;;;;2.00;1.10;;;10.00;31.20;;;;;;6374923;22;20329;-90
2024/04/20 11:06:03;;;;;;;2.17;1.30;;;9.50;33.60;;;;;;6375581;22;20329;-88
2024/04/20 11:08:32;;;;;;;3.20;1.63;;;9.60;31.80;;;;;;6373451;22;20284;-87
2024/04/20 11:11:04;;;;;;;2.53;1.30;;;9.70;33.60;;;;;;6373213;22;20231;-87
2024/04/20 11:13:34;;;;;;;2.28;1.40;;;9.60;32.40;;;;;;6373223;22;20559;-88
2024/04/20 11:16:03;;;;;;;3.70;1.30;;;9.80;31.60;;;;;;6374461;22;20226;-87
2024/04/20 11:18:33;;;;;;;1.92;1.40;;;9.40;31.20;;;;;;6373909;22;20353;-87
2024/04/20 11:21:04;;;;;;;4.20;1.40;;;9.60;32.50;;;;;;6331807;22;21007;-85
2024/04/20 11:23:33;;;;;;;1.52;1.42;;;9.40;33.80;;;;;;6371539;22;20346;-86
2024/04/20 11:26:01;;;;;;;1.98;1.30;;;9.40;39.20;;;;;;6374932;22;20653;-87
2024/04/20 11:28:31;;;;;;;2.50;1.83;;;9.40;36.80;;;;;;6374151;22;20696;-85
2024/04/20 11:31:01;;;;;;;3.35;1.65;;;9.10;36.10;;;;;;6373055;22;20349;-85
2024/04/20 11:33:30;;;;;;;2.15;1.40;;;9.20;34.90;;;;;;6373530;22;20770;-86
2024/04/20 11:36:04;;;;;;;4.40;1.40;;;9.30;36.30;;;;;;6374044;22;20225;-86
2024/04/20 11:38:36;;;;;;;2.17;1.20;;;9.70;39.20;;;;;;6374144;22;20277;-87
2024/04/20 11:41:04;;;;;;;1.10;1.10;;;9.60;37.70;;;;;;6374147;22;20315;-87
2024/04/20 11:43:34;;;;;;;2.20;1.00;;;9.70;37.20;;;;;;6374508;22;20280;-87
2024/04/20 11:46:04;;;;;;;1.38;1.17;;;9.90;36.60;;;;;;6333260;22;20357;-87
2024/04/20 11:48:33;;;;;;;1.88;1.40;;;10.00;34.70;;;;;;6371878;22;20783;-84
2024/04/20 11:51:15;;;;;;;2.70;1.00;;;10.20;32.00;;;;;;6373863;22;20264;-84
2024/04/20 11:56:31;;;;;;;1.13;1.02;;;10.20;28.70;;;;;;6307318;22;20340;-85
2024/04/20 11:59:03;;;;;;;1.63;1.10;;;10.10;26.80;;;;;;6373205;22;20318;-86
2024/04/20 12:01:32;;;;;;;2.00;1.02;;;9.90;29.30;;;;;;6372856;22;20264;-85
2024/04/20 12:04:01;;;;;;;3.45;1.30;;;9.80;28.60;;;;;;6372760;22;20595;-84
2024/04/20 12:06:29;;;;;;;1.30;1.20;;;9.80;32.10;;;;;;6372918;22;20237;-84
2024/04/20 12:09:01;;;;;;;1.20;1.10;;;9.80;32.80;;;;;;6372724;22;21114;-86
2024/04/20 12:11:29;;;;;;;1.48;1.38;;;9.40;35.70;;;;;;6370946;22;20233;-85
2024/04/20 12:13:58;;;;;;;1.52;1.23;;;9.10;40.70;;;;;;6373260;22;20237;-87
2024/04/20 12:16:29;;;;;;;1.33;1.23;;;8.60;47.10;;;;;;6374415;22;20285;-86
2024/04/20 12:18:57;;;;;;;1.90;1.73;;;7.90;55.50;;;;;;6371453;22;20259;-86
2024/04/20 12:21:26;;;;;;;2.58;1.70;;;7.40;72.30;;;;;;6371540;22;20229;-86
2024/04/20 12:23:55;;;;;;;1.48;1.20;;;7.10;76.90;;;;;;6372565;22;20345;-86
2024/04/20 12:26:26;;;;;;;1.48;1.20;;;6.90;80.70;;;;;;6371814;22;20238;-86
2024/04/20 12:28:56;;;;;;;1.33;1.23;;;6.90;86.00;;;;;;6373339;22;20264;-85
2024/04/20 12:31:24;;;;;;;1.52;1.42;;;6.90;87.30;;;;;;6373602;22;20374;-86
2024/04/20 12:33:55;;;;;;;1.20;1.10;;;7.10;85.20;;;;;;6372937;22;20286;-85
2024/04/20 12:36:23;;;;;;;1.95;1.23;;;7.30;84.30;;;;;;6370290;22;20264;-85
2024/04/20 12:38:52;;;;;;;1.60;1.50;;;7.80;78.30;;;;;;6372140;22;20225;-86
2024/04/20 12:41:21;;;;;;;2.20;1.58;;;7.80;77.10;;;;;;6368502;22;20229;-84
2024/04/20 12:43:55;;;;;;;1.92;1.60;;;7.80;72.60;;;;;;6368767;22;20222;-84
2024/04/20 12:46:24;;;;;;;2.67;1.45;;;7.80;72.60;;;;;;6371721;22;20259;-86
2024/04/20 12:48:52;;;;;;;1.40;1.30;;;8.00;72.80;;;;;;6371248;22;20284;-86
2024/04/20 12:51:21;;;;;;;1.90;1.50;;;8.10;62.20;;;;;;6368842;22;20234;-86
2024/04/20 12:53:47;;;;;;;1.30;1.20;;;8.30;64.40;;;;;;6370594;22;20654;-86
2024/04/20 12:56:15;;;;;;;1.55;1.30;;;8.60;63.00;;;;;;6370969;22;20336;-86
2024/04/20 12:58:45;;;;;;;1.65;1.20;;;8.90;54.10;;;;;;6370995;22;20237;-86
2024/04/20 13:01:16;;;;;;;1.58;1.48;;;8.70;45.20;;;;;;6370135;22;20358;-86
2024/04/20 13:03:45;;;;;;;2.75;1.40;;;8.60;47.10;;;;;;6370970;22;20354;-86
2024/04/20 13:06:13;;;;;;;1.70;1.30;;;8.50;47.10;;;;;;6373593;22;20237;-86
2024/04/20 13:08:42;;;;;;;1.95;1.60;;;8.60;47.10;;;;;;6371477;22;20665;-87
2024/04/20 13:11:12;;;;;;;2.28;1.55;;;8.30;46.90;;;;;;6372033;22;20226;-87
2024/04/20 13:13:40;;;;;;;1.77;1.40;;;8.10;49.50;;;;;;6371410;22;20264;-87